Time;durP1;ratioP1;P1;durP2;ratioP2;P2;SDS_P1;SDS_P2;PMS_P1;PMS_P2;Temp;Humidity;BMP_temperature;BMP_pressure;BME280_temperature;BME280_humidity;BME280_pressure;Samples;Min_cycle;Max_cycle;Signal;HPM_P1;HPM_P2
2023/05/01 00:02:10;;;;;;;1.00;0.80;;;;;;;8.32;82.79;98750.11;79540;1300;3011677;-61
2023/05/01 00:04:38;;;;;;;1.50;0.80;;;;;;;8.11;83.44;98754.73;78258;1302;3028758;-61
2023/05/01 00:07:04;;;;;;;2.10;0.80;;;;;;;7.76;84.79;98752.80;79457;1295;3020635;-61
2023/05/01 00:09:32;;;;;;;1.10;0.80;;;;;;;7.57;86.15;98752.95;79454;1298;3011629;-60
2023/05/01 00:12:01;;;;;;;1.00;0.90;;;;;;;7.45;86.56;98758.16;78315;1298;3028205;-59
2023/05/01 00:14:28;;;;;;;0.40;0.40;;;;;;;7.23;87.94;98762.02;79505;1294;3013146;-61
2023/05/01 00:16:55;;;;;;;1.90;1.10;;;;;;;7.60;88.16;98755.52;79610;1294;3011554;-62
2023/05/01 00:19:23;;;;;;;1.00;0.70;;;;;;;8.36;85.77;98748.13;78434;1306;3049806;-62
2023/05/01 00:21:51;;;;;;;1.50;0.80;;;;;;;8.52;83.92;98746.45;79544;1298;3020577;-61
2023/05/01 00:24:18;;;;;;;1.30;0.70;;;;;;;8.17;84.36;98745.95;79533;1297;3011549;-61
2023/05/01 00:26:46;;;;;;;1.00;0.70;;;;;;;8.15;84.55;98745.41;78262;1298;3053077;-59
2023/05/01 00:29:13;;;;;;;1.50;0.60;;;;;;;7.83;85.45;98755.84;79506;1298;3013190;-61
2023/05/01 00:31:41;;;;;;;1.10;0.80;;;;;;;7.36;87.63;98764.25;79452;1299;3011632;-62
2023/05/01 00:34:10;;;;;;;0.50;0.50;;;;;;;7.38;88.01;98762.36;78297;1298;3050493;-61
2023/05/01 00:36:37;;;;;;;1.60;0.70;;;;;;;7.75;87.06;98764.21;79743;1299;3013794;-62
2023/05/01 00:39:06;;;;;;;1.40;0.70;;;;;;;8.13;85.59;98761.54;79506;1298;3011504;-63
2023/05/01 00:41:35;;;;;;;1.40;1.00;;;;;;;8.24;84.95;98761.09;78242;1298;3052784;-62
2023/05/01 00:44:02;;;;;;;2.80;1.60;;;;;;;8.20;84.67;98762.67;79557;1298;3012968;-62
2023/05/01 00:46:29;;;;;;;3.10;1.70;;;;;;;8.05;85.02;98764.83;79583;1295;3011657;-61
2023/05/01 00:48:57;;;;;;;3.60;2.10;;;;;;;7.70;85.87;98765.73;78288;1298;3027905;-59
2023/05/01 00:51:24;;;;;;;2.90;1.90;;;;;;;7.44;86.52;98766.21;79507;1299;3013172;-62
2023/05/01 00:53:50;;;;;;;1.40;0.80;;;;;;;7.24;88.03;98769.45;79357;1301;3011755;-61
2023/05/01 00:56:18;;;;;;;1.40;0.70;;;;;;;7.76;87.43;98764.16;78322;1298;3028473;-60
2023/05/01 00:58:46;;;;;;;1.00;0.70;;;;;;;8.18;85.39;98766.52;79484;1294;3013494;-61
2023/05/01 01:01:13;;;;;;;1.20;0.50;;;;;;;8.14;84.93;98766.89;79640;1298;3011376;-62
2023/05/01 01:03:41;;;;;;;1.20;0.60;;;;;;;7.95;85.84;98768.06;78155;1300;3049877;-60
2023/05/01 01:06:15;;;;;;;1.40;0.70;;;;;;;7.72;86.20;98767.35;79541;1298;3013482;-62
2023/05/01 01:09:22;;;;;;;1.30;0.60;;;;;;;7.44;87.38;98768.67;78329;1297;3051636;-61
2023/05/01 01:12:08;;;;;;;0.80;0.50;;;;;;;7.33;88.04;98770.84;78205;1298;3053374;-61
2023/05/01 01:14:44;;;;;;;2.80;1.20;;;;;;;7.22;88.53;98773.23;78203;1298;3068259;-61
2023/05/01 01:17:18;;;;;;;5.60;2.00;;;;;;;7.70;88.21;98765.17;78367;1299;3051028;-62
2023/05/01 01:20:29;;;;;;;5.70;3.40;;;;;;;8.03;86.44;98761.10;79602;1296;3011632;-60
2023/05/01 01:23:12;;;;;;;9.80;6.20;;;;;;;8.02;85.76;98760.52;77687;1304;3050699;-62
2023/05/01 01:26:00;;;;;;;;;;;;;;;7.78;86.30;98761.74;77718;1305;3053297;-61
2023/05/01 01:28:54;;;;;;;11.30;6.30;;;;;;;7.51;87.51;98764.76;78120;1297;3050813;-60
2023/05/01 01:32:00;;;;;;;9.30;5.70;;;;;;;7.29;88.39;98764.98;78385;1295;3052309;-62
2023/05/01 01:34:55;;;;;;;4.90;2.40;;;;;;;7.18;89.16;98760.94;78265;1299;3053177;-60
2023/05/01 01:37:28;;;;;;;3.80;1.70;;;;;;;7.78;87.63;98755.85;78058;1299;3069088;-61
2023/05/01 01:40:06;;;;;;;3.20;1.50;;;;;;;8.06;86.05;98756.05;79437;1298;3011932;-62
2023/05/01 01:42:39;;;;;;;2.10;1.40;;;;;;;7.86;85.71;98757.11;78329;1295;3055435;-61
2023/05/01 01:45:10;;;;;;;1.80;1.20;;;;;;;7.54;87.12;98764.57;79271;1292;3011672;-62
2023/05/01 01:47:39;;;;;;;2.20;1.10;;;;;;;7.27;88.05;98766.52;78163;1298;3053821;-61
2023/05/01 01:50:07;;;;;;;1.70;1.30;;;;;;;7.12;89.05;98764.06;79443;1298;3014925;-61
2023/05/01 01:52:35;;;;;;;0.90;0.60;;;;;;;6.94;90.08;98768.39;79487;1298;3013142;-61
2023/05/01 01:55:06;;;;;;;1.50;0.70;;;;;;;7.42;89.45;98768.45;78214;1298;3068458;-62
2023/05/01 01:57:34;;;;;;;5.40;0.80;;;;;;;7.85;87.08;98765.54;79595;1292;3011645;-62
2023/05/01 02:00:07;;;;;;;1.50;1.10;;;;;;;7.79;86.30;98770.07;78348;1298;3056457;-62
2023/05/01 02:02:41;;;;;;;1.70;1.30;;;;;;;7.70;86.27;98770.45;78295;1297;3050122;-60
2023/05/01 02:05:08;;;;;;;3.00;1.40;;;;;;;7.43;86.92;98782.48;79498;1299;3012956;-61
2023/05/01 02:07:36;;;;;;;1.40;1.20;;;;;;;7.29;87.40;98790.60;79517;1295;3011777;-62
2023/05/01 02:10:06;;;;;;;3.50;1.50;;;;;;;7.10;88.21;98795.53;78574;1298;3053368;-58
2023/05/01 02:12:33;;;;;;;3.00;0.80;;;;;;;6.96;89.50;98794.95;79525;1295;3012981;-62
2023/05/01 02:14:59;;;;;;;1.30;0.80;;;;;;;7.38;88.67;98789.72;79357;1295;3013048;-62
2023/05/01 02:17:27;;;;;;;2.00;1.40;;;;;;;7.77;86.66;98785.57;78468;1298;3049522;-61
2023/05/01 02:19:54;;;;;;;1.80;1.40;;;;;;;7.80;86.06;98793.91;79573;1294;3013376;-60
2023/05/01 02:22:21;;;;;;;3.10;1.50;;;;;;;7.60;86.59;98799.83;79445;1294;3011648;-60
2023/05/01 02:24:49;;;;;;;3.20;1.60;;;;;;;7.36;87.37;98800.14;78383;1297;3026328;-59
2023/05/01 02:27:21;;;;;;;1.80;1.60;;;;;;;7.11;88.83;98801.56;79537;1298;3013129;-60
2023/05/01 02:29:50;;;;;;;1.90;1.70;;;;;;;7.05;89.21;98802.26;78293;1297;3057826;-61
2023/05/01 02:32:17;;;;;;;1.40;0.80;;;;;;;6.91;89.60;98805.29;79636;1293;3014033;-62
2023/05/01 02:34:44;;;;;;;1.20;1.00;;;;;;;7.47;88.66;98803.30;79530;1292;3012703;-62
2023/05/01 02:37:12;;;;;;;1.40;1.20;;;;;;;8.15;85.95;98801.20;78291;1298;3052474;-61
2023/05/01 02:39:39;;;;;;;2.40;1.50;;;;;;;8.07;84.73;98804.99;79560;1295;3013017;-61
2023/05/01 02:42:08;;;;;;;2.40;1.50;;;;;;;7.74;85.70;98817.64;79451;1296;3011918;-60
2023/05/01 02:44:47;;;;;;;2.30;1.50;;;;;;;7.57;86.27;98819.16;78475;1298;3055564;-60
2023/05/01 02:47:17;;;;;;;2.00;1.60;;;;;;;7.25;87.62;98823.54;78279;1297;3049971;-61
2023/05/01 02:49:45;;;;;;;3.00;1.70;;;;;;;7.19;88.43;98823.24;79571;1292;3011656;-60
2023/05/01 02:52:15;;;;;;;2.50;1.00;;;;;;;7.04;89.00;98827.91;78079;1296;3026258;-61
2023/05/01 02:54:44;;;;;;;1.80;1.30;;;;;;;7.38;88.79;98828.73;79665;1298;3012813;-60
2023/05/01 02:57:12;;;;;;;1.90;1.50;;;;;;;7.80;86.62;98829.12;78224;1298;3026696;-62
2023/05/01 02:59:39;;;;;;;2.40;1.40;;;;;;;7.70;86.28;98837.02;79638;1292;3013165;-61
2023/05/01 03:02:06;;;;;;;1.80;1.50;;;;;;;7.41;87.14;98837.86;79590;1297;3013135;-59
2023/05/01 03:04:34;;;;;;;1.80;1.40;;;;;;;7.24;88.02;98846.10;78209;1298;3027057;-60
2023/05/01 03:07:01;;;;;;;2.30;1.40;;;;;;;6.98;88.95;98848.59;79592;1293;3013326;-60
2023/05/01 03:09:28;;;;;;;1.80;1.30;;;;;;;6.80;90.12;98847.70;79441;1295;3013263;-60
2023/05/01 03:11:56;;;;;;;3.30;1.60;;;;;;;7.22;89.45;98848.31;78425;1297;3028493;-62
2023/05/01 03:14:24;;;;;;;1.80;1.40;;;;;;;7.53;87.35;98854.72;79778;1298;3013655;-61
2023/05/01 03:16:50;;;;;;;1.40;1.10;;;;;;;7.63;86.65;98858.16;79576;1293;3013471;-62
2023/05/01 03:19:18;;;;;;;2.10;1.50;;;;;;;7.45;87.04;98865.13;78377;1297;3048742;-60
2023/05/01 03:21:44;;;;;;;1.90;1.60;;;;;;;7.16;88.26;98863.80;79518;1296;3013075;-61
2023/05/01 03:24:11;;;;;;;1.50;1.30;;;;;;;7.07;88.87;98867.61;79388;1299;3014134;-60
2023/05/01 03:26:40;;;;;;;1.40;0.80;;;;;;;6.97;89.59;98869.02;78446;1298;3052386;-61
2023/05/01 03:29:07;;;;;;;2.20;1.30;;;;;;;7.40;88.95;98871.67;79490;1297;3021221;-62
2023/05/01 03:31:34;;;;;;;2.20;1.20;;;;;;;7.82;86.21;98876.25;79512;1298;3012852;-61
2023/05/01 03:34:02;;;;;;;1.30;1.20;;;;;;;7.78;85.33;98876.14;78363;1297;3049764;-61
2023/05/01 03:36:29;;;;;;;2.20;1.60;;;;;;;7.55;85.78;98878.85;79398;1298;3013225;-60
2023/05/01 03:38:56;;;;;;;2.80;1.30;;;;;;;7.32;86.38;98881.54;79502;1298;3011586;-61
2023/05/01 03:41:53;;;;;;;;;;;;;;;7.07;87.63;98882.94;77938;1306;3054579;-61
2023/05/01 03:44:25;;;;;;;1.90;1.30;;;;;;;6.91;88.48;98891.81;79462;1298;3013521;-61
2023/05/01 03:46:53;;;;;;;1.20;0.80;;;;;;;6.79;89.42;98893.19;78134;1294;3050693;-61
2023/05/01 03:49:23;;;;;;;2.40;1.00;;;;;;;7.46;87.64;98896.08;79445;1297;3011978;-62
2023/05/01 03:51:51;;;;;;;1.20;0.90;;;;;;;7.71;85.71;98897.11;78240;1298;3026568;-60
2023/05/01 03:54:18;;;;;;;1.60;1.20;;;;;;;7.70;85.28;98899.43;79521;1297;3018710;-61
2023/05/01 03:56:58;;;;;;;3.00;1.20;;;;;;;7.50;85.82;98903.89;78156;1301;3051859;-60
2023/05/01 03:59:24;;;;;;;4.00;1.80;;;;;;;7.34;86.67;98901.95;79393;1298;3020895;-62
2023/05/01 04:01:51;;;;;;;3.90;2.30;;;;;;;7.10;87.76;98900.91;79418;1298;3011496;-60
2023/05/01 04:04:19;;;;;;;3.30;1.90;;;;;;;7.06;88.66;98901.64;78411;1295;3030508;-59
2023/05/01 04:06:50;;;;;;;2.00;1.40;;;;;;;7.09;89.10;98900.45;79544;1292;3012628;-62
2023/05/01 04:09:18;;;;;;;2.60;1.30;;;;;;;7.60;87.32;98904.55;78262;1297;3026681;-62
2023/05/01 04:11:45;;;;;;;2.20;1.60;;;;;;;7.98;84.95;98907.94;79658;1297;3013069;-60
2023/05/01 04:14:12;;;;;;;1.70;1.40;;;;;;;7.84;84.79;98910.14;79633;1298;3012973;-60
2023/05/01 04:16:40;;;;;;;2.60;1.50;;;;;;;7.67;85.37;98913.16;78309;1293;3028782;-60
2023/05/01 04:19:08;;;;;;;1.80;1.30;;;;;;;7.43;86.29;98909.83;79443;1293;3012856;-60
2023/05/01 04:21:36;;;;;;;3.60;1.80;;;;;;;7.20;87.32;98909.42;79589;1292;3011874;-61
2023/05/01 04:24:04;;;;;;;1.70;1.40;;;;;;;7.12;88.25;98905.98;78271;1298;3053389;-60
2023/05/01 04:26:30;;;;;;;1.10;0.90;;;;;;;7.16;88.64;98904.05;79604;1298;3012897;-61
2023/05/01 04:28:57;;;;;;;2.40;1.30;;;;;;;7.57;88.04;98915.01;79514;1298;3011604;-62
2023/05/01 04:31:27;;;;;;;2.80;1.50;;;;;;;7.99;85.95;98915.71;78390;1293;3069728;-62
2023/05/01 04:33:53;;;;;;;2.70;1.80;;;;;;;8.00;86.09;98921.05;79541;1292;3013223;-61
2023/05/01 04:36:20;;;;;;;2.80;1.40;;;;;;;7.77;86.42;98924.49;79498;1298;3011897;-61
2023/05/01 04:38:48;;;;;;;3.10;2.10;;;;;;;7.62;87.58;98920.13;78427;1293;3026687;-60
2023/05/01 04:41:15;;;;;;;3.30;1.60;;;;;;;7.36;88.53;98924.21;79504;1298;3013234;-61
2023/05/01 04:43:41;;;;;;;1.60;1.00;;;;;;;7.12;89.95;98925.15;79591;1298;3013551;-61
2023/05/01 04:46:09;;;;;;;2.10;1.30;;;;;;;7.55;89.48;98928.51;78348;1298;3028355;-61
2023/05/01 04:48:36;;;;;;;1.90;1.40;;;;;;;8.06;87.24;98929.45;79483;1292;3013447;-61
2023/05/01 04:51:03;;;;;;;2.90;1.70;;;;;;;7.97;86.57;98933.26;79534;1297;3011688;-61
2023/05/01 04:53:33;;;;;;;4.30;2.30;;;;;;;7.89;87.23;98932.51;78480;1292;3052757;-62
2023/05/01 04:56:00;;;;;;;3.20;2.20;;;;;;;7.72;87.52;98932.45;79475;1298;3013153;-61
2023/05/01 04:58:27;;;;;;;2.20;1.60;;;;;;;7.51;88.17;98932.41;79475;1297;3013016;-61
2023/05/01 05:00:59;;;;;;;4.50;2.50;;;;;;;7.31;88.92;98930.59;78446;1297;3071908;-60
2023/05/01 05:03:26;;;;;;;2.60;1.40;;;;;;;7.31;89.63;98930.39;79751;1295;3019260;-61
2023/05/01 05:05:53;;;;;;;3.60;1.80;;;;;;;7.90;88.01;98936.45;79545;1295;3011625;-60
2023/05/01 05:08:21;;;;;;;3.40;1.70;;;;;;;8.38;85.03;98936.27;78139;1295;3054100;-62
2023/05/01 05:11:00;;;;;;;3.70;1.90;;;;;;;8.20;84.76;98938.03;78279;1298;3049712;-60
2023/05/01 05:13:32;;;;;;;3.00;1.90;;;;;;;8.05;84.99;98941.02;78393;1295;3053135;-62
2023/05/01 05:16:01;;;;;;;3.00;2.10;;;;;;;7.67;85.91;98944.05;79376;1298;3013289;-62
2023/05/01 05:18:28;;;;;;;4.70;1.60;;;;;;;7.73;86.92;98944.73;79540;1294;3011936;-61
2023/05/01 05:20:56;;;;;;;2.70;1.80;;;;;;;7.89;86.14;98948.40;78298;1298;3056457;-62
2023/05/01 05:23:23;;;;;;;2.10;1.20;;;;;;;7.76;87.11;98949.29;77662;1295;3056244;-61
2023/05/01 05:25:49;;;;;;;1.60;1.20;;;;;;;8.35;85.85;98952.16;79422;1295;3012756;-61
2023/05/01 05:28:17;;;;;;;4.00;1.40;;;;;;;8.58;82.75;98956.76;79485;1295;3011631;-62
2023/05/01 05:30:45;;;;;;;2.00;1.40;;;;;;;8.47;82.46;98950.77;78406;1298;3053268;-62
2023/05/01 05:33:15;;;;;;;3.50;1.90;;;;;;;8.38;83.07;98952.84;79517;1298;3013445;-62
2023/05/01 05:35:44;;;;;;;3.70;1.90;;;;;;;8.30;83.51;98956.64;79018;1294;3011973;-62
2023/05/01 05:38:10;;;;;;;4.90;1.70;;;;;;;8.22;83.63;98953.27;79668;1294;3018568;-61
2023/05/01 05:40:38;;;;;;;3.60;2.10;;;;;;;8.08;84.05;98953.23;79678;1294;3013224;-61
2023/05/01 05:43:07;;;;;;;3.90;2.40;;;;;;;8.13;84.28;98952.77;78264;1297;3050042;-60
2023/05/01 05:45:34;;;;;;;1.60;1.00;;;;;;;8.18;84.42;98954.21;79652;1297;3013789;-61
2023/05/01 05:48:02;;;;;;;2.30;1.70;;;;;;;8.52;82.15;98957.08;79370;1298;3011531;-61
2023/05/01 05:50:31;;;;;;;2.00;1.70;;;;;;;8.88;80.25;98950.38;78226;1298;3051431;-62
2023/05/01 05:52:58;;;;;;;4.50;2.20;;;;;;;9.00;79.42;98953.46;79481;1298;3013405;-62
2023/05/01 05:55:25;;;;;;;3.20;2.20;;;;;;;8.89;79.53;98956.78;79435;1297;3011708;-61
2023/05/01 05:58:03;;;;;;;4.40;2.70;;;;;;;8.88;79.69;98961.23;78268;1298;3050375;-62
2023/05/01 06:00:31;;;;;;;3.70;2.00;;;;;;;8.79;79.58;98956.70;79623;1297;3013619;-61
2023/05/01 06:03:02;;;;;;;3.20;1.80;;;;;;;8.71;79.53;98958.23;79081;1294;3014243;-63
2023/05/01 06:05:31;;;;;;;3.90;2.10;;;;;;;8.87;79.41;98955.34;79645;1297;3011774;-62
2023/05/01 06:07:57;;;;;;;3.90;2.00;;;;;;;8.67;80.03;98967.18;79493;1295;3011639;-63
2023/05/01 06:10:25;;;;;;;3.20;2.00;;;;;;;8.50;80.47;98968.91;78324;1298;3050439;-64
2023/05/01 06:12:52;;;;;;;2.50;1.30;;;;;;;8.55;80.04;98970.71;79516;1295;3013247;-60
2023/05/01 06:15:19;;;;;;;1.70;1.30;;;;;;;9.16;79.08;98968.89;79547;1298;3011926;-62
2023/05/01 06:17:52;;;;;;;2.20;1.60;;;;;;;9.70;76.23;98965.66;78300;1298;3052703;-60
2023/05/01 06:20:19;;;;;;;5.40;2.30;;;;;;;9.67;75.66;98969.89;79393;1298;3020634;-61
2023/05/01 06:22:46;;;;;;;3.00;1.90;;;;;;;9.41;76.00;98976.80;79490;1296;3011870;-60
2023/05/01 06:25:25;;;;;;;3.10;1.70;;;;;;;9.20;76.71;98976.86;78270;1298;3051044;-60
2023/05/01 06:27:51;;;;;;;2.10;1.80;;;;;;;9.02;76.90;98979.90;79379;1298;3011664;-60
2023/05/01 06:30:21;;;;;;;3.20;2.00;;;;;;;8.62;77.12;98988.10;78172;1298;3028287;-61
2023/05/01 06:32:48;;;;;;;2.60;1.70;;;;;;;8.44;78.05;98991.41;79462;1298;3013408;-62
2023/05/01 06:35:15;;;;;;;5.00;2.10;;;;;;;8.40;78.21;98984.98;79540;1297;3012993;-61
2023/05/01 06:37:43;;;;;;;5.40;2.10;;;;;;;8.61;78.41;98989.36;78190;1296;3028070;-61
2023/05/01 06:40:10;;;;;;;4.70;2.00;;;;;;;8.38;80.10;99001.21;79602;1295;3013154;-61
2023/05/01 06:42:38;;;;;;;2.10;1.40;;;;;;;8.12;81.64;99000.30;79560;1294;3011635;-62
2023/05/01 06:45:07;;;;;;;2.50;1.70;;;;;;;8.58;81.14;99000.18;78342;1298;3050849;-61
2023/05/01 06:47:33;;;;;;;3.20;1.90;;;;;;;9.22;79.24;98999.99;79427;1298;3013280;-61
2023/05/01 06:50:01;;;;;;;2.30;1.90;;;;;;;9.11;78.67;99007.11;79530;1297;3013128;-61
2023/05/01 06:52:29;;;;;;;4.90;2.00;;;;;;;8.83;79.50;99015.14;78183;1298;3053035;-61
2023/05/01 06:54:56;;;;;;;6.90;2.10;;;;;;;8.61;80.29;99017.49;79453;1295;3013090;-62
2023/05/01 06:57:23;;;;;;;3.00;1.90;;;;;;;8.45;80.79;99023.11;79404;1298;3013684;-62
2023/05/01 06:59:50;;;;;;;2.50;1.90;;;;;;;8.32;81.24;99026.83;78109;1298;3028519;-60
2023/05/01 07:02:17;;;;;;;2.80;2.20;;;;;;;8.07;81.42;99034.20;79585;1298;3013198;-63
2023/05/01 07:04:44;;;;;;;3.50;1.90;;;;;;;8.03;81.91;99030.77;79659;1298;3011570;-63
2023/05/01 07:07:12;;;;;;;1.50;1.30;;;;;;;8.15;82.10;99033.05;78516;1295;3026696;-62
2023/05/01 07:09:39;;;;;;;2.40;1.90;;;;;;;8.78;80.62;99032.75;79759;1293;3013233;-60
2023/05/01 07:12:06;;;;;;;3.90;1.80;;;;;;;9.51;77.86;99029.13;79594;1292;3011280;-62
2023/05/01 07:14:34;;;;;;;2.20;1.70;;;;;;;9.43;76.37;99033.81;78382;1298;3049656;-61
2023/05/01 07:17:01;;;;;;;2.70;1.90;;;;;;;9.37;75.85;99030.51;79761;1298;3012914;-63
2023/05/01 07:19:28;;;;;;;3.20;1.80;;;;;;;9.33;75.17;99039.69;79580;1292;3011843;-63
2023/05/01 07:21:56;;;;;;;2.80;1.30;;;;;;;9.10;75.23;99048.77;78301;1295;3050923;-63
2023/05/01 07:24:23;;;;;;;2.40;1.30;;;;;;;9.04;76.09;99046.70;79666;1298;3013170;-63
2023/05/01 07:26:50;;;;;;;1.70;1.30;;;;;;;8.85;76.73;99055.55;79562;1292;3011800;-62
2023/05/01 07:29:18;;;;;;;2.40;1.30;;;;;;;8.75;77.15;99058.76;78403;1297;3050479;-64
2023/05/01 07:31:45;;;;;;;2.40;1.50;;;;;;;8.49;78.32;99062.34;79663;1297;3013309;-61
2023/05/01 07:34:11;;;;;;;5.20;2.10;;;;;;;8.36;79.19;99061.15;79639;1297;3011585;-62
2023/05/01 07:36:40;;;;;;;1.70;0.90;;;;;;;8.39;79.46;99066.91;78467;1292;3026403;-63
2023/05/01 07:39:07;;;;;;;1.60;0.70;;;;;;;9.00;76.72;99076.65;79679;1292;3014574;-62
2023/05/01 07:41:33;;;;;;;1.70;0.90;;;;;;;9.44;73.80;99072.90;79556;1292;3011885;-63
2023/05/01 07:44:01;;;;;;;1.80;1.20;;;;;;;9.47;73.31;99077.64;78369;1297;3049751;-63
2023/05/01 07:46:29;;;;;;;3.70;1.50;;;;;;;9.49;73.56;99077.18;79556;1297;3020773;-62
2023/05/01 07:48:55;;;;;;;4.10;2.10;;;;;;;9.55;73.23;99076.25;79556;1293;3012795;-64
2023/05/01 07:51:23;;;;;;;1.80;1.20;;;;;;;9.19;74.85;99090.89;78374;1298;3027647;-64
2023/05/01 07:53:50;;;;;;;1.70;1.30;;;;;;;9.00;75.88;99089.74;79596;1294;3013509;-62
2023/05/01 07:56:16;;;;;;;1.80;1.40;;;;;;;8.93;76.68;99093.48;79561;1292;3013068;-63
2023/05/01 07:58:44;;;;;;;3.60;1.50;;;;;;;8.58;77.63;99097.82;78352;1297;3028671;-62
2023/05/01 08:01:11;;;;;;;2.40;1.40;;;;;;;8.57;77.84;99096.48;79537;1298;3013371;-60
2023/05/01 08:03:38;;;;;;;1.40;1.10;;;;;;;8.50;78.17;99104.20;79495;1297;3011867;-63
2023/05/01 08:06:06;;;;;;;2.70;1.30;;;;;;;8.47;77.91;99098.23;78318;1298;3027037;-63
2023/05/01 08:08:33;;;;;;;3.50;0.90;;;;;;;8.58;77.70;99101.98;79584;1295;3012962;-64
2023/05/01 08:10:59;;;;;;;1.70;0.80;;;;;;;8.77;76.83;99103.35;79743;1295;3011821;-62
2023/05/01 08:13:27;;;;;;;1.10;0.60;;;;;;;9.40;74.32;99096.23;78431;1298;3026630;-61
2023/05/01 08:15:54;;;;;;;0.70;0.60;;;;;;;9.96;72.23;99093.45;79612;1298;3018579;-62
2023/05/01 08:18:20;;;;;;;1.40;0.80;;;;;;;10.35;71.40;99092.02;79614;1298;3013258;-61
2023/05/01 08:20:49;;;;;;;1.40;1.00;;;;;;;9.80;72.50;99111.23;78346;1295;3026306;-62
2023/05/01 08:23:16;;;;;;;1.40;0.90;;;;;;;9.21;74.51;99114.84;79655;1292;3020616;-63
2023/05/01 08:25:45;;;;;;;2.10;1.10;;;;;;;8.98;75.60;99113.23;79503;1295;3011454;-58
2023/05/01 08:28:13;;;;;;;7.70;0.70;;;;;;;8.63;77.09;99122.28;78395;1297;3049794;-58
2023/05/01 08:30:40;;;;;;;4.20;1.20;;;;;;;8.44;78.31;99118.15;79833;1298;3013483;-61
2023/05/01 08:33:06;;;;;;;3.40;1.00;;;;;;;8.61;77.87;99115.63;79410;1297;3011660;-58
2023/05/01 08:35:35;;;;;;;1.40;0.90;;;;;;;8.65;77.24;99117.48;78387;1298;3028949;-60
2023/05/01 08:38:01;;;;;;;2.00;0.90;;;;;;;8.81;77.07;99116.00;79517;1297;3013227;-60
2023/05/01 08:40:31;;;;;;;2.00;1.00;;;;;;;8.86;76.36;99120.58;79545;1298;3011848;-60
2023/05/01 08:43:01;;;;;;;2.00;1.00;;;;;;;8.89;76.30;99122.22;78590;1298;3048494;-61
2023/05/01 08:45:29;;;;;;;1.00;0.60;;;;;;;8.86;76.88;99124.98;79511;1297;3011886;-63
2023/05/01 08:47:57;;;;;;;1.50;0.80;;;;;;;9.35;75.74;99126.05;78154;1297;3028588;-63
2023/05/01 08:50:24;;;;;;;1.90;1.20;;;;;;;10.09;73.29;99126.92;79750;1295;3012390;-62
2023/05/01 08:52:51;;;;;;;2.10;0.70;;;;;;;9.82;72.47;99139.26;79533;1298;3014040;-60
2023/05/01 08:55:19;;;;;;;1.10;0.60;;;;;;;9.52;73.13;99138.89;78343;1292;3049577;-62
2023/05/01 08:57:47;;;;;;;1.70;0.90;;;;;;;9.49;73.36;99136.05;79975;1292;3020474;-60
2023/05/01 09:00:17;;;;;;;2.00;0.70;;;;;;;9.38;74.03;99139.86;79553;1293;3011653;-62
2023/05/01 09:02:47;;;;;;;1.20;0.70;;;;;;;9.21;74.55;99145.44;78363;1298;3052998;-64
2023/05/01 09:05:22;;;;;;;1.50;0.70;;;;;;;8.98;75.43;99144.20;79657;1296;3013600;-62
2023/05/01 09:07:50;;;;;;;1.00;0.60;;;;;;;8.55;76.71;99154.67;78367;1297;3052907;-62
2023/05/01 09:10:19;;;;;;;1.00;0.70;;;;;;;8.30;78.52;99153.64;79512;1292;3012997;-61
2023/05/01 09:12:53;;;;;;;2.80;0.80;;;;;;;8.24;79.29;99159.19;79226;1292;3012986;-62
2023/05/01 09:15:20;;;;;;;0.60;0.40;;;;;;;8.36;80.07;99151.23;79636;1292;3011893;-62
2023/05/01 09:17:48;;;;;;;3.30;0.50;;;;;;;8.93;77.92;99160.04;78465;1295;3049848;-62
2023/05/01 09:20:14;;;;;;;3.30;0.90;;;;;;;9.46;75.87;99161.61;79292;1301;3013799;-62
2023/05/01 09:22:41;;;;;;;1.40;0.90;;;;;;;9.41;75.51;99153.51;79424;1298;3011755;-62
2023/05/01 09:25:09;;;;;;;1.40;0.80;;;;;;;9.32;75.68;99158.45;78473;1295;3026688;-64
2023/05/01 09:27:36;;;;;;;1.90;0.70;;;;;;;9.18;76.63;99160.86;79798;1292;3013309;-63
2023/05/01 09:30:05;;;;;;;5.30;1.10;;;;;;;9.10;76.88;99162.71;79710;1298;3011682;-62
2023/05/01 09:32:33;;;;;;;1.70;1.00;;;;;;;9.06;77.43;99157.15;78395;1295;3049420;-62
2023/05/01 09:35:13;;;;;;;1.10;0.90;;;;;;;9.02;77.77;99161.95;79592;1298;3019339;-62
2023/05/01 09:37:41;;;;;;;2.50;1.30;;;;;;;9.17;77.95;99163.67;78315;1298;3069743;-62
2023/05/01 09:40:14;;;;;;;2.80;1.10;;;;;;;9.11;77.55;99161.77;79611;1298;3013646;-64
2023/05/01 09:42:50;;;;;;;2.30;1.00;;;;;;;9.18;76.83;99170.10;78295;1292;3049105;-62
2023/05/01 09:45:18;;;;;;;1.30;1.00;;;;;;;9.10;77.46;99174.39;78441;1293;3052607;-62
2023/05/01 09:47:45;;;;;;;2.30;1.60;;;;;;;9.46;77.23;99179.23;79579;1292;3013534;-61
2023/05/01 09:50:33;;;;;;;4.10;1.50;;;;;;;9.95;75.60;99182.73;79616;1298;3012972;-62
2023/05/01 09:53:03;;;;;;;1.60;1.20;;;;;;;10.10;74.72;99191.04;78441;1293;3069064;-60
2023/05/01 09:55:30;;;;;;;2.50;1.70;;;;;;;10.04;74.44;99191.77;79631;1293;3012922;-63
2023/05/01 09:57:57;;;;;;;2.50;1.50;;;;;;;9.85;75.11;99194.71;79646;1292;3011947;-60
2023/05/01 10:00:25;;;;;;;3.00;1.50;;;;;;;9.65;75.77;99198.58;78634;1293;3052520;-62
2023/05/01 10:02:52;;;;;;;4.00;1.60;;;;;;;9.74;75.75;99193.48;79907;1298;3012914;-62
2023/05/01 10:05:18;;;;;;;2.70;1.40;;;;;;;9.69;76.05;99196.75;79490;1297;3012737;-63
2023/05/01 10:07:58;;;;;;;1.70;1.50;;;;;;;9.82;74.90;99204.71;78477;1294;3027984;-62
2023/05/01 10:10:26;;;;;;;2.20;1.50;;;;;;;9.90;74.43;99193.01;78199;1298;3051773;-61
2023/05/01 10:12:53;;;;;;;3.10;1.40;;;;;;;10.06;73.71;99200.98;79593;1295;3020818;-64
2023/05/01 10:15:20;;;;;;;4.20;1.50;;;;;;;9.99;73.61;99201.41;79563;1295;3011363;-61
2023/05/01 10:17:50;;;;;;;2.30;1.50;;;;;;;9.77;74.11;99206.56;78299;1298;3028104;-61
2023/05/01 10:20:16;;;;;;;4.60;1.60;;;;;;;9.58;75.67;99209.12;79505;1297;3011585;-63
2023/05/01 10:22:43;;;;;;;3.00;1.90;;;;;;;9.68;75.49;99208.53;79577;1298;3011922;-61
2023/05/01 10:25:11;;;;;;;2.20;1.20;;;;;;;10.03;74.67;99207.07;78661;1295;3051049;-63
2023/05/01 10:27:39;;;;;;;3.40;1.40;;;;;;;10.65;72.72;99208.46;79680;1295;3013451;-61
2023/05/01 10:30:07;;;;;;;2.30;1.30;;;;;;;11.03;70.15;99210.69;79562;1294;3011739;-65
2023/05/01 10:32:36;;;;;;;2.40;1.20;;;;;;;11.12;69.37;99210.98;78269;1295;3050531;-61
2023/05/01 10:35:06;;;;;;;2.00;1.20;;;;;;;11.29;69.09;99213.35;79610;1297;3013092;-62
2023/05/01 10:37:37;;;;;;;5.00;1.50;;;;;;;11.38;68.84;99214.32;78328;1296;3068626;-63
2023/05/01 10:40:37;;;;;;;4.80;1.90;;;;;;;11.32;69.68;99216.48;79568;1294;3011772;-64
2023/05/01 10:43:14;;;;;;;2.70;1.80;;;;;;;11.20;69.80;99221.62;78244;1298;3057044;-62
2023/05/01 10:45:46;;;;;;;4.90;2.50;;;;;;;10.95;70.91;99219.83;78330;1295;3049761;-63
2023/05/01 10:48:38;;;;;;;3.30;2.00;;;;;;;10.95;71.37;99223.33;79542;1294;3011579;-62
2023/05/01 10:51:14;;;;;;;3.30;1.70;;;;;;;10.82;71.66;99223.83;78336;1296;3050846;-64
2023/05/01 10:53:43;;;;;;;2.60;1.70;;;;;;;10.90;71.84;99226.96;78396;1298;3051675;-67
2023/05/01 10:56:25;;;;;;;2.40;1.50;;;;;;;11.05;71.41;99224.19;79645;1295;3013030;-66
2023/05/01 10:58:57;;;;;;;3.20;1.50;;;;;;;11.21;71.10;99223.69;78402;1294;3051925;-63
2023/05/01 11:01:35;;;;;;;2.40;1.50;;;;;;;11.33;70.54;99222.02;79491;1297;3011837;-63
2023/05/01 11:04:07;;;;;;;3.20;1.40;;;;;;;11.30;69.92;99223.95;78351;1295;3051087;-63
2023/05/01 11:06:35;;;;;;;2.30;1.50;;;;;;;11.15;69.88;99231.07;79553;1295;3011686;-62
2023/05/01 11:09:38;;;;;;;4.80;2.20;;;;;;;11.01;70.52;99238.88;78336;1298;3049796;-63
2023/05/01 11:12:07;;;;;;;4.30;1.80;;;;;;;11.22;70.64;99233.92;78263;1297;3053295;-63
2023/05/01 11:15:07;;;;;;;2.50;1.30;;;;;;;11.36;70.08;99229.36;79624;1297;3013086;-63
2023/05/01 11:17:38;;;;;;;10.80;4.70;;;;;;;11.45;69.52;99237.84;78031;1298;3051770;-63
2023/05/01 11:20:06;;;;;;;11.40;6.80;;;;;;;11.77;68.30;99240.77;79451;1293;3013157;-63
2023/05/01 11:22:35;;;;;;;8.10;4.10;;;;;;;11.74;67.50;99239.05;78401;1298;3048864;-63
2023/05/01 11:25:05;;;;;;;3.40;1.70;;;;;;;11.63;67.66;99247.69;79463;1298;3013686;-65
2023/05/01 11:27:34;;;;;;;2.20;1.50;;;;;;;11.59;68.09;99255.32;78331;1298;3053232;-63
2023/05/01 11:30:01;;;;;;;1.80;1.10;;;;;;;11.44;67.99;99256.36;79456;1298;3013236;-63
2023/05/01 11:32:28;;;;;;;1.60;0.80;;;;;;;11.37;68.79;99256.49;79595;1298;3011891;-61
2023/05/01 11:34:56;;;;;;;3.70;2.40;;;;;;;11.48;69.26;99254.69;78347;1298;3055731;-65
2023/05/01 11:37:43;;;;;;;4.70;1.40;;;;;;;11.62;68.77;99247.60;79518;1295;3013790;-63